Time;durP1;ratioP1;P1;durP2;ratioP2;P2;SDS_P1;SDS_P2;PMS_P1;PMS_P2;Temp;Humidity;BMP_temperature;BMP_pressure;BME280_temperature;BME280_humidity;BME280_pressure;Samples;Min_cycle;Max_cycle;Signal;HPM_P1;HPM_P2
2022/12/13 00:01:23;;;;;;;22.15;10.27;;;1.80;90.70;;;;;;5013191;28;20148;-69
2022/12/13 00:03:52;;;;;;;18.60;9.50;;;1.80;90.80;;;;;;5008140;28;20069;-70
2022/12/13 00:06:18;;;;;;;22.75;10.05;;;1.80;90.90;;;;;;5010973;28;20782;-69
2022/12/13 00:08:44;;;;;;;20.45;9.70;;;1.80;90.90;;;;;;5010213;28;20371;-69
2022/12/13 00:11:12;;;;;;;19.45;9.18;;;1.80;91.00;;;;;;5012753;28;20037;-70
2022/12/13 00:13:39;;;;;;;21.95;9.27;;;1.80;90.90;;;;;;4998971;28;20038;-70
2022/12/13 00:16:07;;;;;;;20.17;9.35;;;1.80;90.60;;;;;;5003527;28;20144;-70
2022/12/13 00:18:33;;;;;;;22.52;10.23;;;1.80;90.60;;;;;;5011201;28;20033;-69
2022/12/13 00:21:02;;;;;;;21.58;9.63;;;1.80;90.70;;;;;;5007594;28;20081;-70
2022/12/13 00:23:28;;;;;;;22.83;11.13;;;1.80;90.80;;;;;;5011856;28;20061;-70
2022/12/13 00:25:54;;;;;;;23.00;10.82;;;1.80;90.70;;;;;;5010966;28;20124;-69
2022/12/13 00:28:20;;;;;;;20.58;9.90;;;1.80;90.80;;;;;;5011129;28;20034;-69
2022/12/13 00:30:46;;;;;;;19.20;10.70;;;1.80;90.70;;;;;;5010280;28;20064;-70
2022/12/13 00:33:11;;;;;;;21.48;9.68;;;1.80;90.70;;;;;;5004014;28;20040;-69
2022/12/13 00:35:40;;;;;;;21.35;10.23;;;1.80;90.60;;;;;;5012225;28;20088;-69
2022/12/13 00:38:08;;;;;;;19.77;10.18;;;1.70;90.70;;;;;;5041668;28;20040;-70
2022/12/13 00:40:34;;;;;;;20.88;9.43;;;1.80;90.80;;;;;;5008803;28;20037;-69
2022/12/13 00:42:59;;;;;;;20.40;10.13;;;1.80;90.80;;;;;;5014257;28;20095;-70
2022/12/13 00:45:25;;;;;;;21.02;10.15;;;1.80;90.80;;;;;;5009415;28;20041;-69
2022/12/13 00:47:51;;;;;;;19.60;9.63;;;1.80;90.60;;;;;;5008250;28;20061;-70
2022/12/13 00:50:17;;;;;;;20.20;9.23;;;1.70;90.50;;;;;;5007095;28;20038;-70
2022/12/13 00:52:43;;;;;;;18.50;9.48;;;1.70;90.70;;;;;;5003652;28;20038;-70
2022/12/13 00:55:09;;;;;;;20.17;9.07;;;1.60;90.90;;;;;;5001748;28;20041;-69
2022/12/13 00:57:35;;;;;;;21.63;10.07;;;1.60;90.90;;;;;;5015250;28;20032;-69
2022/12/13 01:00:02;;;;;;;23.63;10.85;;;1.70;91.00;;;;;;5007900;28;20068;-69
2022/12/13 01:02:27;;;;;;;20.27;9.30;;;1.60;90.70;;;;;;5013111;28;20033;-69
2022/12/13 01:04:53;;;;;;;20.60;10.43;;;1.70;90.70;;;;;;5011486;28;20084;-69
2022/12/13 01:07:19;;;;;;;23.70;10.85;;;1.70;90.80;;;;;;5011222;28;20048;-69
2022/12/13 01:09:45;;;;;;;19.23;9.55;;;1.70;90.90;;;;;;5007626;28;20034;-69
2022/12/13 01:12:11;;;;;;;22.63;11.13;;;1.70;90.90;;;;;;5003457;28;20038;-69
2022/12/13 01:14:39;;;;;;;22.60;10.63;;;1.70;90.80;;;;;;5014414;28;20084;-69
2022/12/13 01:17:05;;;;;;;23.88;11.63;;;1.70;90.90;;;;;;5011792;28;20033;-69
2022/12/13 01:19:31;;;;;;;22.70;10.63;;;1.70;90.90;;;;;;5016007;28;20025;-69
2022/12/13 01:22:00;;;;;;;21.58;10.73;;;1.70;90.80;;;;;;5015340;28;20037;-69
2022/12/13 01:24:27;;;;;;;22.35;10.20;;;1.70;90.70;;;;;;5014307;28;20041;-69
2022/12/13 01:26:53;;;;;;;18.88;9.57;;;1.60;91.00;;;;;;5014814;28;20037;-69
2022/12/13 01:29:20;;;;;;;24.00;11.45;;;1.50;91.00;;;;;;5011196;28;20038;-69
2022/12/13 01:31:47;;;;;;;27.30;11.27;;;1.60;91.00;;;;;;5006401;28;20037;-69
2022/12/13 01:34:16;;;;;;;23.30;11.10;;;1.50;90.90;;;;;;5013189;28;20033;-69
2022/12/13 01:36:43;;;;;;;22.10;10.75;;;1.50;91.10;;;;;;5011145;28;20730;-69
2022/12/13 01:39:11;;;;;;;20.75;9.68;;;1.40;91.00;;;;;;5017988;28;20068;-69
2022/12/13 01:41:37;;;;;;;21.75;10.23;;;1.40;91.00;;;;;;5012022;28;20136;-69
2022/12/13 01:44:44;;;;;;;22.52;10.80;;;1.40;91.30;;;;;;5012749;28;20048;-69
2022/12/13 01:47:12;;;;;;;23.95;11.07;;;1.40;91.20;;;;;;5012125;28;20096;-69
2022/12/13 01:49:38;;;;;;;19.27;10.00;;;1.50;91.20;;;;;;5007402;28;20038;-69
2022/12/13 01:52:07;;;;;;;18.98;10.55;;;1.40;91.20;;;;;;5011455;28;20073;-69
2022/12/13 01:54:38;;;;;;;19.15;10.00;;;1.40;91.20;;;;;;5013350;28;20149;-69
2022/12/13 01:57:07;;;;;;;22.35;10.93;;;1.40;91.30;;;;;;5013508;28;20026;-70
2022/12/13 01:59:36;;;;;;;22.20;10.05;;;1.50;91.30;;;;;;5014311;28;20037;-69
2022/12/13 02:02:02;;;;;;;19.10;9.98;;;1.50;91.20;;;;;;5012403;28;20080;-69
2022/12/13 02:04:36;;;;;;;20.65;11.38;;;1.50;91.20;;;;;;5016045;28;20048;-69
2022/12/13 02:07:03;;;;;;;25.92;11.93;;;1.50;91.00;;;;;;5012690;28;20038;-68
2022/12/13 02:09:29;;;;;;;24.95;12.18;;;1.40;91.00;;;;;;5007977;28;20035;-69
2022/12/13 02:11:55;;;;;;;23.23;10.70;;;1.40;91.00;;;;;;5012980;28;20037;-69
2022/12/13 02:14:20;;;;;;;23.55;11.55;;;1.40;91.20;;;;;;5013195;28;20375;-69
2022/12/13 02:16:52;;;;;;;24.02;11.77;;;1.40;91.30;;;;;;5014726;28;20021;-69
2022/12/13 02:19:36;;;;;;;24.50;12.43;;;1.40;91.30;;;;;;5011668;28;20036;-69
2022/12/13 02:22:29;;;;;;;23.30;11.90;;;1.40;91.20;;;;;;5013131;28;20064;-69
2022/12/13 02:25:33;;;;;;;26.67;12.65;;;1.40;91.10;;;;;;4983100;28;20057;-69
2022/12/13 02:28:20;;;;;;;21.83;11.10;;;1.30;91.20;;;;;;5007501;28;20034;-69
2022/12/13 02:31:00;;;;;;;26.08;12.70;;;1.30;91.30;;;;;;5013925;28;20413;-69
2022/12/13 02:33:48;;;;;;;26.23;11.73;;;1.30;91.40;;;;;;5041659;28;20061;-69
2022/12/13 02:36:20;;;;;;;28.10;12.38;;;1.30;91.40;;;;;;5013527;28;20076;-69
2022/12/13 02:39:01;;;;;;;28.23;12.18;;;1.30;91.40;;;;;;5017706;28;20568;-69
2022/12/13 02:41:57;;;;;;;25.42;12.73;;;1.40;91.40;;;;;;5012944;28;20887;-69
2022/12/13 02:44:27;;;;;;;25.20;11.50;;;1.30;91.30;;;;;;5011166;28;20050;-69
2022/12/13 02:47:05;;;;;;;25.75;11.95;;;1.30;91.20;;;;;;5004626;28;20795;-69
2022/12/13 02:49:37;;;;;;;24.38;11.68;;;1.30;91.30;;;;;;5013532;28;20033;-69
2022/12/13 02:52:06;;;;;;;26.17;12.20;;;1.30;91.40;;;;;;5010775;28;20080;-69
2022/12/13 02:54:32;;;;;;;26.13;12.07;;;1.30;91.30;;;;;;5019621;28;20583;-69
2022/12/13 02:56:59;;;;;;;27.15;12.13;;;1.30;91.40;;;;;;5008416;28;20041;-69
2022/12/13 02:59:36;;;;;;;26.00;12.52;;;1.30;91.50;;;;;;5012324;28;20030;-69
2022/12/13 03:02:22;;;;;;;24.10;12.00;;;1.30;91.20;;;;;;5011513;28;20085;-69
2022/12/13 03:08:20;;;;;;;24.92;12.38;;;1.30;91.30;;;;;;4995764;28;20038;-69
2022/12/13 03:11:02;;;;;;;25.65;12.07;;;1.30;91.30;;;;;;5010680;28;20034;-69
2022/12/13 03:13:36;;;;;;;24.00;12.32;;;1.30;91.20;;;;;;5018619;28;20041;-69
2022/12/13 03:16:37;;;;;;;23.48;11.00;;;1.30;91.00;;;;;;5007819;28;20026;-69
2022/12/13 03:19:07;;;;;;;27.17;11.90;;;1.30;91.20;;;;;;4970532;28;20048;-69
2022/12/13 03:21:47;;;;;;;29.33;12.27;;;1.30;91.20;;;;;;5010080;28;20561;-69
2022/12/13 03:24:17;;;;;;;25.20;12.88;;;1.30;91.20;;;;;;5005079;28;20045;-69
2022/12/13 03:26:44;;;;;;;26.60;12.30;;;1.30;91.30;;;;;;5008624;28;20041;-69
2022/12/13 03:29:09;;;;;;;26.05;11.80;;;1.30;91.20;;;;;;5012895;28;20405;-69
2022/12/13 03:31:35;;;;;;;27.73;12.35;;;1.30;91.20;;;;;;5014190;28;20033;-69
2022/12/13 03:34:01;;;;;;;25.08;12.02;;;1.30;91.30;;;;;;5012544;28;20034;-69
2022/12/13 03:36:27;;;;;;;28.02;12.63;;;1.30;91.30;;;;;;5011711;28;20041;-69
2022/12/13 03:38:54;;;;;;;28.05;12.65;;;1.30;91.30;;;;;;5009830;28;20033;-69
2022/12/13 03:41:23;;;;;;;23.73;12.38;;;1.20;91.10;;;;;;5011058;28;20037;-69
2022/12/13 03:43:49;;;;;;;28.40;12.43;;;1.20;91.20;;;;;;5005284;28;20030;-69
2022/12/13 03:46:15;;;;;;;26.52;11.73;;;1.20;91.30;;;;;;5010428;28;20040;-69
2022/12/13 03:48:41;;;;;;;24.50;11.25;;;1.20;91.10;;;;;;5040988;28;20030;-69
2022/12/13 03:51:06;;;;;;;24.63;12.20;;;1.20;91.00;;;;;;5014035;28;20498;-69
2022/12/13 03:53:32;;;;;;;24.15;11.57;;;1.20;91.20;;;;;;5007573;28;20037;-69
2022/12/13 03:55:59;;;;;;;24.25;11.40;;;1.20;91.10;;;;;;5010045;28;20037;-69
2022/12/13 03:58:26;;;;;;;26.52;12.55;;;1.20;91.10;;;;;;5012571;28;20026;-70
2022/12/13 04:00:52;;;;;;;22.10;11.23;;;1.20;91.10;;;;;;5005963;28;20040;-69
2022/12/13 04:03:17;;;;;;;26.77;12.80;;;1.20;91.00;;;;;;5003947;28;20120;-69
2022/12/13 04:05:43;;;;;;;24.48;12.15;;;1.10;91.00;;;;;;5010168;28;20037;-69
2022/12/13 04:08:09;;;;;;;26.65;12.25;;;1.20;91.10;;;;;;5012216;28;20121;-69
2022/12/13 04:10:34;;;;;;;26.65;12.95;;;1.20;90.90;;;;;;5018668;28;20112;-69
2022/12/13 04:15:47;;;;;;;30.88;14.85;;;1.10;90.80;;;;;;5011511;28;20149;-69
2022/12/13 04:18:15;;;;;;;30.42;15.05;;;1.10;90.90;;;;;;5010175;28;20158;-69
2022/12/13 04:20:41;;;;;;;26.77;12.73;;;1.10;91.00;;;;;;5003214;28;20037;-70
2022/12/13 04:23:07;;;;;;;25.17;12.15;;;1.00;91.00;;;;;;5008158;28;20095;-69
2022/12/13 04:25:33;;;;;;;29.88;14.30;;;1.10;91.10;;;;;;5009976;28;20117;-70
2022/12/13 04:27:59;;;;;;;28.48;13.23;;;1.00;91.10;;;;;;5008907;28;20165;-69
2022/12/13 04:30:25;;;;;;;26.20;12.05;;;1.00;91.00;;;;;;5013701;28;20056;-69
2022/12/13 04:32:51;;;;;;;26.70;11.80;;;1.00;91.10;;;;;;5008020;28;20029;-69
2022/12/13 04:35:17;;;;;;;27.95;12.93;;;1.00;90.90;;;;;;5008665;28;20044;-69
2022/12/13 04:37:43;;;;;;;25.17;13.15;;;1.00;91.10;;;;;;5009233;28;20041;-69
2022/12/13 04:40:10;;;;;;;27.67;13.00;;;1.00;91.00;;;;;;5003099;28;20034;-69
2022/12/13 04:42:35;;;;;;;32.58;13.15;;;0.90;91.10;;;;;;5010495;28;20799;-69
2022/12/13 04:45:01;;;;;;;28.00;13.05;;;1.00;91.20;;;;;;5009350;28;20045;-69
2022/12/13 04:47:27;;;;;;;30.75;12.63;;;0.90;91.10;;;;;;5011190;28;20080;-69
2022/12/13 04:49:54;;;;;;;30.42;14.13;;;0.90;91.40;;;;;;5008624;28;20565;-69
2022/12/13 04:52:20;;;;;;;27.85;12.82;;;0.90;91.40;;;;;;5009933;28;20042;-68
2022/12/13 04:54:45;;;;;;;30.83;11.98;;;0.80;91.40;;;;;;5010995;28;20536;-68
2022/12/13 04:57:12;;;;;;;35.70;14.77;;;0.80;91.30;;;;;;5007944;28;20038;-69
2022/12/13 04:59:38;;;;;;;32.78;14.38;;;0.80;91.50;;;;;;5003332;28;20030;-69
2022/12/13 05:02:05;;;;;;;29.17;12.88;;;0.80;91.40;;;;;;5014287;28;20039;-69
2022/12/13 05:04:32;;;;;;;31.98;14.30;;;0.80;91.50;;;;;;5009146;28;20029;-69
2022/12/13 05:06:57;;;;;;;34.53;13.32;;;0.60;91.70;;;;;;5048334;28;20041;-69
2022/12/13 05:09:23;;;;;;;30.40;13.82;;;0.60;92.10;;;;;;5042356;28;20411;-69
2022/12/13 05:11:50;;;;;;;26.98;12.93;;;0.60;92.00;;;;;;5008915;28;20034;-69
2022/12/13 05:14:16;;;;;;;26.35;12.25;;;0.70;92.00;;;;;;5009782;28;20037;-70
2022/12/13 05:16:42;;;;;;;29.50;13.07;;;0.70;92.00;;;;;;5009641;28;20030;-69
2022/12/13 05:19:08;;;;;;;27.30;13.05;;;0.70;91.70;;;;;;5002915;28;20100;-69
2022/12/13 05:21:35;;;;;;;35.22;13.60;;;0.80;91.60;;;;;;5012671;28;20029;-69
2022/12/13 05:24:01;;;;;;;29.80;13.40;;;0.90;91.40;;;;;;5010701;28;20662;-69
2022/12/13 05:26:28;;;;;;;28.90;12.85;;;0.90;91.30;;;;;;5011742;28;20552;-69
2022/12/13 05:28:58;;;;;;;28.63;12.60;;;0.90;91.30;;;;;;5008163;28;20180;-69
2022/12/13 05:31:24;;;;;;;29.55;13.82;;;0.90;91.20;;;;;;5009438;28;20543;-70
2022/12/13 05:33:53;;;;;;;29.35;13.25;;;0.80;91.20;;;;;;5009601;28;20034;-70
2022/12/13 05:36:21;;;;;;;29.38;13.00;;;0.80;91.30;;;;;;5006482;28;20542;-69
2022/12/13 05:38:47;;;;;;;45.38;14.60;;;0.70;91.20;;;;;;5006961;28;20045;-69
2022/12/13 05:41:16;;;;;;;28.38;12.70;;;0.70;91.60;;;;;;5009341;28;20054;-70
2022/12/13 05:43:42;;;;;;;31.20;13.50;;;0.60;91.70;;;;;;5012443;28;20084;-70
2022/12/13 05:46:07;;;;;;;31.58;14.43;;;0.60;91.70;;;;;;5009851;28;20116;-69
2022/12/13 05:48:33;;;;;;;30.42;13.52;;;0.60;91.50;;;;;;5009813;28;20473;-69
2022/12/13 05:50:59;;;;;;;30.30;13.80;;;0.70;91.60;;;;;;5008522;28;20052;-70
2022/12/13 05:53:25;;;;;;;26.92;11.80;;;0.50;91.60;;;;;;5009163;28;20065;-70
2022/12/13 05:55:51;;;;;;;36.03;15.77;;;0.40;91.70;;;;;;5004232;28;20137;-70
2022/12/13 05:58:17;;;;;;;31.70;16.25;;;0.40;91.70;;;;;;5010831;28;20029;-70
2022/12/13 06:00:43;;;;;;;37.75;19.52;;;0.50;91.80;;;;;;5012822;28;20045;-70
2022/12/13 06:03:08;;;;;;;32.00;16.05;;;0.50;92.00;;;;;;5017815;28;20033;-70
2022/12/13 06:05:34;;;;;;;31.33;14.63;;;0.40;92.00;;;;;;5012616;28;20401;-70
2022/12/13 06:08:00;;;;;;;35.08;17.52;;;0.40;92.00;;;;;;5011057;28;20034;-70
2022/12/13 06:10:27;;;;;;;36.25;15.77;;;0.50;91.90;;;;;;5011934;28;20042;-70
2022/12/13 06:12:52;;;;;;;40.30;18.88;;;0.40;91.80;;;;;;5008052;28;20033;-70
2022/12/13 06:15:18;;;;;;;37.30;15.52;;;0.30;92.00;;;;;;5007702;28;20099;-70
2022/12/13 06:17:44;;;;;;;27.80;12.60;;;0.30;92.30;;;;;;5011089;28;20080;-70
2022/12/13 06:20:10;;;;;;;35.15;16.05;;;0.40;92.20;;;;;;5012757;28;20124;-69
2022/12/13 06:22:36;;;;;;;32.85;17.40;;;0.50;91.70;;;;;;5013695;28;20095;-70
2022/12/13 06:25:02;;;;;;;32.80;16.42;;;0.50;91.80;;;;;;5008826;28;20840;-70
2022/12/13 06:27:28;;;;;;;29.33;13.88;;;0.50;91.90;;;;;;5014186;28;20040;-70
2022/12/13 06:29:54;;;;;;;26.73;13.55;;;0.40;91.70;;;;;;5011327;28;20843;-70
2022/12/13 06:32:20;;;;;;;25.45;12.68;;;0.30;91.80;;;;;;5010679;28;20037;-70
2022/12/13 06:34:46;;;;;;;30.15;13.80;;;0.20;91.90;;;;;;5008000;28;20619;-69
2022/12/13 06:37:12;;;;;;;31.02;13.25;;;0.30;92.10;;;;;;5008741;28;20037;-70
2022/12/13 06:39:39;;;;;;;26.98;14.43;;;0.40;92.00;;;;;;5005607;28;20044;-70
2022/12/13 06:42:09;;;;;;;28.25;13.75;;;0.50;91.90;;;;;;5013832;28;20159;-69
2022/12/13 06:44:35;;;;;;;21.95;11.82;;;0.60;91.70;;;;;;5016460;28;20060;-70
2022/12/13 06:47:03;;;;;;;27.80;12.52;;;0.60;91.40;;;;;;5010955;28;20033;-70
2022/12/13 06:49:29;;;;;;;31.40;13.68;;;0.70;91.40;;;;;;5005628;28;20130;-69
2022/12/13 06:51:54;;;;;;;24.55;12.30;;;0.70;91.10;;;;;;5013465;28;20030;-71
2022/12/13 06:54:20;;;;;;;24.08;12.60;;;0.80;91.10;;;;;;5008571;28;20035;-71
2022/12/13 06:56:46;;;;;;;23.40;11.35;;;0.80;90.90;;;;;;5007920;28;20413;-68
2022/12/13 06:59:12;;;;;;;30.83;13.00;;;0.80;91.00;;;;;;5011106;28;20056;-69
2022/12/13 07:01:38;;;;;;;22.30;11.57;;;0.80;90.80;;;;;;5003616;28;20033;-70
2022/12/13 07:04:05;;;;;;;24.83;11.13;;;0.80;90.60;;;;;;5008303;28;20090;-68
2022/12/13 07:06:30;;;;;;;29.02;13.27;;;0.90;90.60;;;;;;5003175;28;20034;-68
2022/12/13 07:08:57;;;;;;;28.08;13.55;;;0.80;90.70;;;;;;5011715;28;20041;-68
2022/12/13 07:11:26;;;;;;;29.00;12.35;;;0.80;90.40;;;;;;5006420;28;20033;-67
2022/12/13 07:13:52;;;;;;;22.45;11.13;;;0.80;90.50;;;;;;5007767;28;20731;-68
2022/12/13 07:16:19;;;;;;;23.38;10.85;;;0.80;90.50;;;;;;5008041;28;20492;-68
2022/12/13 07:18:45;;;;;;;24.80;11.23;;;0.90;90.50;;;;;;5009402;28;20645;-68
2022/12/13 07:21:12;;;;;;;28.80;13.50;;;0.90;90.50;;;;;;5010503;28;20030;-71
2022/12/13 07:23:39;;;;;;;26.40;13.27;;;0.90;90.40;;;;;;5005584;28;20026;-67
2022/12/13 07:26:06;;;;;;;30.08;12.45;;;0.90;90.00;;;;;;5008547;28;20030;-68
2022/12/13 07:28:33;;;;;;;30.35;13.18;;;0.90;90.10;;;;;;5009295;28;20025;-67
2022/12/13 07:31:01;;;;;;;29.58;12.52;;;1.00;90.20;;;;;;5002497;28;20047;-68
2022/12/13 07:33:31;;;;;;;31.13;14.00;;;1.00;90.10;;;;;;5006097;28;20113;-68
2022/12/13 07:36:08;;;;;;;32.78;13.98;;;0.90;90.20;;;;;;5009112;28;20048;-68
2022/12/13 07:38:35;;;;;;;29.20;13.27;;;1.00;90.20;;;;;;5006150;28;20060;-69
2022/12/13 07:41:01;;;;;;;26.10;12.32;;;1.00;90.00;;;;;;5010867;28;20040;-68
2022/12/13 07:43:28;;;;;;;27.10;12.25;;;1.00;90.10;;;;;;5009538;28;20034;-68
2022/12/13 07:45:57;;;;;;;28.48;12.35;;;1.00;90.10;;;;;;5006268;28;20103;-68
2022/12/13 07:48:23;;;;;;;23.25;12.77;;;1.00;90.10;;;;;;5006314;28;20405;-68
2022/12/13 07:50:49;;;;;;;31.30;16.50;;;1.00;90.10;;;;;;5037553;28;20038;-68
2022/12/13 07:53:15;;;;;;;29.95;14.88;;;1.00;89.50;;;;;;5011262;28;20025;-68
2022/12/13 07:55:41;;;;;;;27.50;14.05;;;1.00;89.20;;;;;;5014653;28;20045;-68
2022/12/13 07:58:09;;;;;;;30.35;13.02;;;0.90;89.20;;;;;;5046806;28;20037;-67
2022/12/13 08:00:37;;;;;;;31.02;13.75;;;0.70;89.60;;;;;;5006545;28;20021;-68
2022/12/13 08:03:04;;;;;;;37.83;17.02;;;0.60;89.80;;;;;;5011485;28;20508;-68
2022/12/13 08:05:30;;;;;;;32.35;15.77;;;0.40;90.50;;;;;;5010915;28;20121;-69
2022/12/13 08:07:56;;;;;;;31.63;15.30;;;0.40;90.70;;;;;;5007756;28;20045;-68
2022/12/13 08:10:22;;;;;;;41.00;15.55;;;0.40;90.70;;;;;;5003178;28;20037;-68
2022/12/13 08:12:49;;;;;;;48.70;22.85;;;0.40;90.90;;;;;;5008393;28;20258;-69
2022/12/13 08:15:15;;;;;;;55.85;24.08;;;0.40;90.80;;;;;;5011034;28;20469;-68
2022/12/13 08:17:41;;;;;;;51.00;18.58;;;0.50;90.70;;;;;;5014131;28;20033;-68
2022/12/13 08:20:07;;;;;;;42.33;20.05;;;0.30;90.40;;;;;;5007864;28;20772;-68
2022/12/13 08:22:33;;;;;;;31.27;17.55;;;0.10;90.80;;;;;;5008583;28;20025;-68
2022/12/13 08:24:59;;;;;;;33.25;14.57;;;0.20;91.10;;;;;;5009763;28;20757;-68
2022/12/13 08:27:26;;;;;;;29.05;14.52;;;0.00;91.20;;;;;;5008455;28;20046;-69
2022/12/13 08:29:52;;;;;;;28.85;12.98;;;-0.10;91.70;;;;;;5005380;28;20033;-68
2022/12/13 08:32:18;;;;;;;29.40;13.10;;;0.00;91.70;;;;;;5013501;28;20103;-69
2022/12/13 08:34:44;;;;;;;26.77;13.48;;;0.00;91.60;;;;;;5003096;28;20061;-69
2022/12/13 08:37:11;;;;;;;29.20;13.82;;;0.10;91.50;;;;;;5008164;28;20040;-68
2022/12/13 08:39:38;;;;;;;29.20;12.05;;;0.30;91.50;;;;;;5010221;28;20442;-68
2022/12/13 08:42:15;;;;;;;32.00;12.48;;;0.50;91.40;;;;;;5003614;28;20057;-68
2022/12/13 08:44:41;;;;;;;31.17;12.75;;;0.60;90.90;;;;;;5009364;28;20038;-70
2022/12/13 08:47:07;;;;;;;31.23;12.52;;;0.80;90.50;;;;;;5008418;28;20029;-72
2022/12/13 08:49:33;;;;;;;26.85;12.77;;;0.80;89.90;;;;;;5008222;28;20033;-66
2022/12/13 08:51:59;;;;;;;27.77;12.65;;;0.90;90.00;;;;;;5009196;28;20406;-68
2022/12/13 08:54:25;;;;;;;27.92;12.63;;;1.00;89.80;;;;;;5007737;28;20163;-68
2022/12/13 08:56:51;;;;;;;27.58;12.73;;;1.00;89.10;;;;;;5008259;28;20064;-66
2022/12/13 08:59:17;;;;;;;24.95;12.18;;;1.10;89.10;;;;;;5004203;28;20029;-66
2022/12/13 09:01:44;;;;;;;28.15;14.07;;;0.90;89.30;;;;;;5011283;28;20067;-66
2022/12/13 09:04:10;;;;;;;30.08;14.77;;;0.90;89.90;;;;;;5004470;28;20125;-66
2022/12/13 09:06:36;;;;;;;30.90;17.15;;;1.00;89.50;;;;;;5008390;28;20029;-67
2022/12/13 09:09:02;;;;;;;39.45;20.50;;;1.00;89.60;;;;;;5005883;28;20061;-67
2022/12/13 09:11:28;;;;;;;41.10;21.70;;;1.00;89.80;;;;;;5003479;28;20037;-67
2022/12/13 09:13:54;;;;;;;30.50;15.88;;;1.10;89.80;;;;;;5011741;28;20064;-68
2022/12/13 09:16:22;;;;;;;28.98;15.40;;;1.10;89.40;;;;;;5039923;28;20087;-68
2022/12/13 09:18:49;;;;;;;25.55;12.43;;;1.20;89.60;;;;;;5008743;28;20034;-67
2022/12/13 09:21:15;;;;;;;23.63;11.65;;;1.30;88.90;;;;;;5007821;28;20034;-67
2022/12/13 09:23:41;;;;;;;22.50;9.82;;;1.40;88.90;;;;;;5015167;28;20038;-68
2022/12/13 09:26:09;;;;;;;21.60;11.18;;;1.50;88.90;;;;;;5002787;28;20033;-67
2022/12/13 09:28:36;;;;;;;32.15;14.30;;;1.60;88.20;;;;;;5009791;28;20030;-68
2022/12/13 09:31:10;;;;;;;24.83;11.38;;;1.70;87.60;;;;;;5008303;28;20215;-68
2022/12/13 09:33:36;;;;;;;19.20;9.95;;;1.50;85.40;;;;;;5009622;28;20397;-69
2022/12/13 09:36:05;;;;;;;26.17;12.95;;;1.40;86.80;;;;;;5014405;28;20132;-68
2022/12/13 09:38:34;;;;;;;21.85;11.18;;;1.30;86.70;;;;;;5014981;28;20111;-67
2022/12/13 09:41:25;;;;;;;21.00;9.43;;;1.20;87.20;;;;;;5009226;28;20473;-67
2022/12/13 09:44:03;;;;;;;20.15;10.07;;;1.20;87.20;;;;;;5022446;28;20711;-67
2022/12/13 09:46:36;;;;;;;18.10;8.93;;;1.10;87.10;;;;;;5011453;28;20038;-67
2022/12/13 09:49:06;;;;;;;21.52;9.75;;;1.00;87.60;;;;;;5011983;28;20041;-67
2022/12/13 09:51:32;;;;;;;18.92;8.95;;;1.00;87.10;;;;;;5008933;28;20485;-67
2022/12/13 09:53:59;;;;;;;20.60;10.93;;;1.10;87.90;;;;;;5011383;28;20048;-67
2022/12/13 09:56:26;;;;;;;24.55;10.95;;;1.20;87.80;;;;;;5042047;28;20033;-67
2022/12/13 09:58:54;;;;;;;21.83;11.25;;;1.30;87.60;;;;;;5009070;28;20054;-67
2022/12/13 10:01:21;;;;;;;24.35;11.80;;;1.40;87.80;;;;;;5012435;28;20034;-68
2022/12/13 10:03:49;;;;;;;20.45;10.27;;;1.50;86.60;;;;;;5010624;28;20045;-66
2022/12/13 10:06:18;;;;;;;28.35;12.10;;;1.60;86.10;;;;;;5011414;28;20326;-67
2022/12/13 10:08:54;;;;;;;23.92;11.70;;;1.70;86.20;;;;;;5010696;28;20038;-67
2022/12/13 10:11:21;;;;;;;38.03;16.80;;;1.80;86.40;;;;;;5012859;28;20037;-67
2022/12/13 10:13:53;;;;;;;47.85;18.58;;;1.90;85.30;;;;;;5012032;28;20135;-67
2022/12/13 10:16:37;;;;;;;37.97;13.25;;;1.90;83.60;;;;;;5009912;28;20066;-68
2022/12/13 10:19:18;;;;;;;27.58;11.13;;;1.90;84.70;;;;;;5011647;28;20136;-67
2022/12/13 10:21:45;;;;;;;20.30;9.85;;;2.00;84.50;;;;;;5010058;28;20949;-66
2022/12/13 10:24:46;;;;;;;19.88;10.07;;;1.90;84.50;;;;;;5014229;28;20041;-67
2022/12/13 10:27:16;;;;;;;19.92;9.23;;;2.00;85.40;;;;;;5012262;28;20187;-75
2022/12/13 10:30:15;;;;;;;19.67;9.80;;;2.10;84.50;;;;;;5010957;28;20076;-67
2022/12/13 10:33:05;;;;;;;21.60;9.88;;;2.10;83.60;;;;;;5006857;28;20048;-68
2022/12/13 10:35:39;;;;;;;25.80;10.45;;;2.10;83.60;;;;;;5007571;28;20038;-68
2022/12/13 10:38:28;;;;;;;19.33;9.50;;;2.20;83.90;;;;;;5013738;28;20052;-71
2022/12/13 10:40:54;;;;;;;19.17;9.90;;;2.20;83.70;;;;;;5008925;28;20030;-69
2022/12/13 10:43:25;;;;;;;18.13;8.95;;;2.20;83.80;;;;;;5009267;28;20033;-68
2022/12/13 10:46:02;;;;;;;22.65;9.77;;;2.20;83.80;;;;;;5007445;28;20037;-67
2022/12/13 10:48:46;;;;;;;21.65;9.85;;;2.30;84.00;;;;;;5013197;28;20173;-67
2022/12/13 10:51:14;;;;;;;19.58;9.15;;;2.40;83.30;;;;;;5007777;28;20926;-68
2022/12/13 10:53:48;;;;;;;17.40;8.52;;;2.40;83.30;;;;;;5042390;28;20128;-69
2022/12/13 10:56:16;;;;;;;19.80;8.63;;;2.60;82.50;;;;;;5007183;28;20030;-69
2022/12/13 10:58:45;;;;;;;19.85;7.43;;;2.60;82.30;;;;;;5016133;28;20116;-69
2022/12/13 11:01:22;;;;;;;15.27;8.18;;;2.60;82.30;;;;;;5009660;28;20100;-67
2022/12/13 11:04:31;;;;;;;17.50;7.50;;;2.60;82.10;;;;;;5011042;28;20053;-68
2022/12/13 11:07:17;;;;;;;14.15;7.50;;;2.70;81.60;;;;;;5010408;28;20394;-68
2022/12/13 11:09:43;;;;;;;17.45;7.78;;;2.70;80.80;;;;;;5012855;28;20389;-69
2022/12/13 11:12:14;;;;;;;15.13;7.10;;;2.80;80.70;;;;;;5010753;28;20029;-68
2022/12/13 11:14:53;;;;;;;18.40;8.27;;;2.70;81.50;;;;;;5009592;28;20727;-68
2022/12/13 11:17:23;;;;;;;13.38;6.97;;;2.70;81.80;;;;;;5010862;28;20062;-68
2022/12/13 11:20:03;;;;;;;15.90;7.93;;;2.70;81.90;;;;;;5008323;28;20037;-68
2022/12/13 11:22:33;;;;;;;12.98;6.57;;;2.80;82.40;;;;;;5010812;28;20033;-69
2022/12/13 11:25:30;;;;;;;14.00;7.72;;;2.80;82.80;;;;;;5017922;28;20041;-68
2022/12/13 11:27:55;;;;;;;15.45;7.45;;;2.90;82.50;;;;;;5012790;28;20083;-69
2022/12/13 11:30:45;;;;;;;16.13;8.25;;;2.90;81.20;;;;;;5009305;28;20452;-71
2022/12/13 11:33:25;;;;;;;14.20;6.55;;;3.00;81.00;;;;;;5008240;28;20502;-68
2022/12/13 11:35:59;;;;;;;17.27;7.60;;;3.00;80.90;;;;;;5013699;28;20091;-68
2022/12/13 11:38:41;;;;;;;13.57;7.43;;;2.90;81.00;;;;;;5014544;28;20024;-70
2022/12/13 11:41:14;;;;;;;17.27;8.00;;;3.00;81.00;;;;;;5006108;28;20474;-67
2022/12/13 11:44:13;;;;;;;18.20;8.63;;;2.90;79.80;;;;;;5007867;28;20048;-70
2022/12/13 11:46:42;;;;;;;17.95;7.85;;;2.90;80.90;;;;;;5011082;28;20057;-69
2022/12/13 11:49:31;;;;;;;14.65;8.13;;;2.80;80.40;;;;;;5011046;28;20572;-67
2022/12/13 11:52:11;;;;;;;17.05;7.55;;;2.70;81.40;;;;;;5011060;28;20671;-67
2022/12/13 11:54:48;;;;;;;18.23;7.95;;;2.70;81.80;;;;;;5007741;28;20053;-68
2022/12/13 11:57:25;;;;;;;17.77;7.65;;;2.80;81.80;;;;;;5006302;28;20029;-68
2022/12/13 11:59:59;;;;;;;13.65;7.55;;;2.80;81.90;;;;;;5001991;28;20029;-68
2022/12/13 12:02:32;;;;;;;15.32;7.72;;;2.90;81.50;;;;;;5008492;28;20034;-67
2022/12/13 12:05:02;;;;;;;11.75;6.60;;;3.00;81.70;;;;;;5011991;28;20060;-68
2022/12/13 12:07:32;;;;;;;13.77;7.47;;;3.00;81.80;;;;;;5010895;28;20197;-67
2022/12/13 12:10:14;;;;;;;12.68;7.63;;;3.10;81.80;;;;;;5010693;28;20057;-68
2022/12/13 12:12:54;;;;;;;15.50;7.65;;;3.20;81.40;;;;;;5005603;28;20084;-70
2022/12/13 12:15:29;;;;;;;14.52;7.88;;;3.20;80.70;;;;;;5006483;28;20636;-67
2022/12/13 12:17:55;;;;;;;21.25;11.43;;;3.10;79.20;;;;;;5013843;28;20040;-69
2022/12/13 12:20:35;;;;;;;20.05;10.10;;;3.20;79.30;;;;;;5010116;28;20033;-69
2022/12/13 12:23:21;;;;;;;15.80;7.95;;;3.10;79.20;;;;;;5013816;28;20115;-69
2022/12/13 12:26:05;;;;;;;20.23;10.00;;;3.00;80.10;;;;;;5010099;28;20037;-69
2022/12/13 12:29:11;;;;;;;19.25;9.88;;;3.10;80.40;;;;;;5008401;28;20041;-70
2022/12/13 12:31:49;;;;;;;16.83;8.13;;;3.10;80.70;;;;;;5005502;28;20730;-72
2022/12/13 12:34:55;;;;;;;19.98;8.73;;;3.10;80.10;;;;;;5012790;28;20564;-71
2022/12/13 12:37:23;;;;;;;18.67;8.63;;;3.10;80.20;;;;;;5010309;28;20072;-72
2022/12/13 12:40:10;;;;;;;15.25;7.93;;;3.10;80.30;;;;;;5008103;28;20029;-69
2022/12/13 12:42:54;;;;;;;;;;;3.10;79.30;;;;;;5006788;28;20045;-72
2022/12/13 12:45:20;;;;;;;18.08;9.35;;;3.10;79.40;;;;;;5011256;28;20781;-72
2022/12/13 12:48:17;;;;;;;18.25;9.35;;;3.20;79.30;;;;;;5003655;28;20066;-72
2022/12/13 12:50:52;;;;;;;19.52;8.60;;;3.20;79.60;;;;;;5009730;28;20029;-73
2022/12/13 12:53:40;;;;;;;18.85;9.70;;;3.20;79.50;;;;;;5004901;28;20493;-72
2022/12/13 12:56:57;;;;;;;19.02;9.82;;;3.20;79.50;;;;;;5007073;28;20041;-72
2022/12/13 12:59:30;;;;;;;15.60;7.90;;;3.30;78.80;;;;;;4955746;28;20264;-73
2022/12/13 13:02:22;;;;;;;14.10;8.27;;;3.30;79.10;;;;;;4946678;28;20425;-72
2022/12/13 13:04:53;;;;;;;14.00;7.85;;;3.30;80.00;;;;;;4994091;28;20046;-73